Terminal Aerodrome Forecast
Issued by NWS

Home | Current Version | Previous Version | Text Only | Print | Product List | Glossary On
Versions: 1 2 3 4 5 6 7 8 9 10 11 12 13 14 15 16 17
000
FTUS41 KGYX 192330
TAFHIE
TAF
KHIE 192330Z 2000/2024 VRB04KT P6SM -SHRA OVC035
     FM200300 VRB03KT 4SM -SHRA BR OVC025
     FM200700 VRB03KT 2SM -SHRA BR OVC015 WS020/25035KT
     FM201400 VRB03KT 6SM BR OVC025=

USA.gov is the U.S. government's official web portal to all federal, state and local government web resources and services.